sensor_id;sensor_type;location;lat;lon;timestamp;temperature;humidity
22714;DHT22;11524;50.846;4.326;2022-10-24T00:02:24;23.20;58.10
22714;DHT22;11524;50.846;4.326;2022-10-24T00:04:49;23.20;58.30
22714;DHT22;11524;50.846;4.326;2022-10-24T00:07:15;23.20;58.40
22714;DHT22;11524;50.846;4.326;2022-10-24T00:09:41;23.20;58.50
22714;DHT22;11524;50.846;4.326;2022-10-24T00:12:07;23.20;58.40
22714;DHT22;11524;50.846;4.326;2022-10-24T00:14:34;23.20;58.30
22714;DHT22;11524;50.846;4.326;2022-10-24T00:17:00;23.20;58.40
22714;DHT22;11524;50.846;4.326;2022-10-24T00:19:26;23.20;59.00
22714;DHT22;11524;50.846;4.326;2022-10-24T00:21:51;23.30;58.40
22714;DHT22;11524;50.846;4.326;2022-10-24T00:24:17;23.20;58.30
22714;DHT22;11524;50.846;4.326;2022-10-24T00:26:43;23.30;58.40
22714;DHT22;11524;50.846;4.326;2022-10-24T00:29:09;23.20;58.20
22714;DHT22;11524;50.846;4.326;2022-10-24T00:31:35;23.20;58.60
22714;DHT22;11524;50.846;4.326;2022-10-24T00:34:01;23.20;58.60
22714;DHT22;11524;50.846;4.326;2022-10-24T00:36:27;23.20;58.40
22714;DHT22;11524;50.846;4.326;2022-10-24T00:38:53;23.20;58.40
22714;DHT22;11524;50.846;4.326;2022-10-24T00:41:26;23.20;58.90
22714;DHT22;11524;50.846;4.326;2022-10-24T00:44:19;23.20;58.20
22714;DHT22;11524;50.846;4.326;2022-10-24T00:46:49;23.30;58.10
22714;DHT22;11524;50.846;4.326;2022-10-24T00:49:18;23.30;58.10
22714;DHT22;11524;50.846;4.326;2022-10-24T00:51:47;23.20;58.20
22714;DHT22;11524;50.846;4.326;2022-10-24T00:54:15;23.30;58.10
22714;DHT22;11524;50.846;4.326;2022-10-24T00:56:45;23.30;58.60
22714;DHT22;11524;50.846;4.326;2022-10-24T00:59:14;23.30;58.10
22714;DHT22;11524;50.846;4.326;2022-10-24T01:01:42;23.20;57.70
22714;DHT22;11524;50.846;4.326;2022-10-24T01:04:13;23.30;57.80
22714;DHT22;11524;50.846;4.326;2022-10-24T01:06:46;23.20;57.80
22714;DHT22;11524;50.846;4.326;2022-10-24T01:12:32;23.30;57.80
22714;DHT22;11524;50.846;4.326;2022-10-24T01:18:18;23.30;57.70
22714;DHT22;11524;50.846;4.326;2022-10-24T01:32:23;23.20;57.60
22714;DHT22;11524;50.846;4.326;2022-10-24T01:35:14;23.30;57.90
22714;DHT22;11524;50.846;4.326;2022-10-24T01:37:49;23.30;57.20
22714;DHT22;11524;50.846;4.326;2022-10-24T01:40:23;23.20;57.40
22714;DHT22;11524;50.846;4.326;2022-10-24T01:42:50;23.20;57.90
22714;DHT22;11524;50.846;4.326;2022-10-24T01:45:22;23.20;59.90
22714;DHT22;11524;50.846;4.326;2022-10-24T01:47:53;23.30;60.90
22714;DHT22;11524;50.846;4.326;2022-10-24T01:50:21;23.30;62.00
22714;DHT22;11524;50.846;4.326;2022-10-24T01:52:49;23.30;62.30
22714;DHT22;11524;50.846;4.326;2022-10-24T01:55:15;23.30;62.50
22714;DHT22;11524;50.846;4.326;2022-10-24T01:57:41;23.30;62.10
22714;DHT22;11524;50.846;4.326;2022-10-24T02:00:10;23.30;61.70
22714;DHT22;11524;50.846;4.326;2022-10-24T02:02:42;23.30;61.50
22714;DHT22;11524;50.846;4.326;2022-10-24T02:05:20;23.30;61.30
22714;DHT22;11524;50.846;4.326;2022-10-24T02:07:49;23.30;61.40
22714;DHT22;11524;50.846;4.326;2022-10-24T02:10:25;23.30;62.00
22714;DHT22;11524;50.846;4.326;2022-10-24T02:13:10;23.30;61.80
22714;DHT22;11524;50.846;4.326;2022-10-24T02:15:45;23.30;58.40
22714;DHT22;11524;50.846;4.326;2022-10-24T02:18:12;23.30;57.90
22714;DHT22;11524;50.846;4.326;2022-10-24T02:20:44;23.20;58.10
22714;DHT22;11524;50.846;4.326;2022-10-24T02:23:24;23.30;58.20
22714;DHT22;11524;50.846;4.326;2022-10-24T02:25:54;23.30;58.00
22714;DHT22;11524;50.846;4.326;2022-10-24T02:28:23;23.20;57.90
22714;DHT22;11524;50.846;4.326;2022-10-24T02:31:00;23.30;57.80
22714;DHT22;11524;50.846;4.326;2022-10-24T02:33:27;23.30;57.70
22714;DHT22;11524;50.846;4.326;2022-10-24T02:35:55;23.20;57.50
22714;DHT22;11524;50.846;4.326;2022-10-24T02:38:25;23.30;57.70
22714;DHT22;11524;50.846;4.326;2022-10-24T02:40:51;23.30;58.00
22714;DHT22;11524;50.846;4.326;2022-10-24T02:43:20;23.20;57.90
22714;DHT22;11524;50.846;4.326;2022-10-24T02:45:49;23.20;57.90
22714;DHT22;11524;50.846;4.326;2022-10-24T02:48:18;23.20;57.60
22714;DHT22;11524;50.846;4.326;2022-10-24T02:50:45;23.20;57.60
22714;DHT22;11524;50.846;4.326;2022-10-24T02:53:13;23.30;57.80
22714;DHT22;11524;50.846;4.326;2022-10-24T02:55:39;23.20;57.60
22714;DHT22;11524;50.846;4.326;2022-10-24T02:58:05;23.20;57.30
22714;DHT22;11524;50.846;4.326;2022-10-24T03:00:30;23.20;57.50
22714;DHT22;11524;50.846;4.326;2022-10-24T03:02:56;23.20;57.70
22714;DHT22;11524;50.846;4.326;2022-10-24T03:05:22;23.20;57.40
22714;DHT22;11524;50.846;4.326;2022-10-24T03:07:47;23.20;57.80
22714;DHT22;11524;50.846;4.326;2022-10-24T03:10:13;23.20;57.30
22714;DHT22;11524;50.846;4.326;2022-10-24T03:12:39;23.20;57.70
22714;DHT22;11524;50.846;4.326;2022-10-24T03:15:05;23.20;57.70
22714;DHT22;11524;50.846;4.326;2022-10-24T03:17:31;23.20;57.40
22714;DHT22;11524;50.846;4.326;2022-10-24T03:19:56;23.20;57.70
22714;DHT22;11524;50.846;4.326;2022-10-24T03:22:22;23.20;57.70
22714;DHT22;11524;50.846;4.326;2022-10-24T03:24:48;23.20;57.80
22714;DHT22;11524;50.846;4.326;2022-10-24T03:27:14;23.20;57.50
22714;DHT22;11524;50.846;4.326;2022-10-24T03:29:40;23.20;57.80
22714;DHT22;11524;50.846;4.326;2022-10-24T03:32:05;23.20;57.70
22714;DHT22;11524;50.846;4.326;2022-10-24T03:34:31;23.20;57.60
22714;DHT22;11524;50.846;4.326;2022-10-24T03:36:57;23.20;57.30
22714;DHT22;11524;50.846;4.326;2022-10-24T03:39:22;23.20;57.20
22714;DHT22;11524;50.846;4.326;2022-10-24T03:41:48;23.20;57.30
22714;DHT22;11524;50.846;4.326;2022-10-24T03:44:14;23.20;57.30
22714;DHT22;11524;50.846;4.326;2022-10-24T03:46:39;23.20;57.20
22714;DHT22;11524;50.846;4.326;2022-10-24T03:49:05;23.20;57.50
22714;DHT22;11524;50.846;4.326;2022-10-24T03:51:31;23.20;57.40
22714;DHT22;11524;50.846;4.326;2022-10-24T03:53:56;23.20;57.30
22714;DHT22;11524;50.846;4.326;2022-10-24T03:56:22;23.20;57.40
22714;DHT22;11524;50.846;4.326;2022-10-24T03:58:47;23.20;57.40
22714;DHT22;11524;50.846;4.326;2022-10-24T04:01:13;23.20;57.20
22714;DHT22;11524;50.846;4.326;2022-10-24T04:03:43;23.20;57.20
22714;DHT22;11524;50.846;4.326;2022-10-24T04:06:09;23.20;57.10
22714;DHT22;11524;50.846;4.326;2022-10-24T04:08:35;23.20;57.40
22714;DHT22;11524;50.846;4.326;2022-10-24T04:11:00;23.20;57.40
22714;DHT22;11524;50.846;4.326;2022-10-24T04:13:26;23.20;57.30
22714;DHT22;11524;50.846;4.326;2022-10-24T04:15:51;23.20;57.30
22714;DHT22;11524;50.846;4.326;2022-10-24T04:18:17;23.20;57.40
22714;DHT22;11524;50.846;4.326;2022-10-24T04:20:43;23.30;57.30
22714;DHT22;11524;50.846;4.326;2022-10-24T04:23:09;23.30;57.20
22714;DHT22;11524;50.846;4.326;2022-10-24T04:25:34;23.30;57.10
22714;DHT22;11524;50.846;4.326;2022-10-24T04:28:00;23.20;57.30
22714;DHT22;11524;50.846;4.326;2022-10-24T04:30:26;23.20;57.40
22714;DHT22;11524;50.846;4.326;2022-10-24T04:32:53;23.20;57.30
22714;DHT22;11524;50.846;4.326;2022-10-24T04:35:18;23.20;57.40
22714;DHT22;11524;50.846;4.326;2022-10-24T04:37:44;23.20;57.30
22714;DHT22;11524;50.846;4.326;2022-10-24T04:40:10;23.20;57.40
22714;DHT22;11524;50.846;4.326;2022-10-24T04:42:35;23.20;57.00
22714;DHT22;11524;50.846;4.326;2022-10-24T04:45:01;23.20;57.10
22714;DHT22;11524;50.846;4.326;2022-10-24T04:47:26;23.20;57.20
22714;DHT22;11524;50.846;4.326;2022-10-24T04:49:52;23.10;57.30
22714;DHT22;11524;50.846;4.326;2022-10-24T04:52:18;23.20;57.30
22714;DHT22;11524;50.846;4.326;2022-10-24T04:54:43;23.20;57.10
22714;DHT22;11524;50.846;4.326;2022-10-24T04:57:09;23.20;57.20
22714;DHT22;11524;50.846;4.326;2022-10-24T04:59:34;23.20;56.90
22714;DHT22;11524;50.846;4.326;2022-10-24T05:02:00;23.20;56.90
22714;DHT22;11524;50.846;4.326;2022-10-24T05:04:25;23.20;57.20
22714;DHT22;11524;50.846;4.326;2022-10-24T05:06:51;23.20;57.00
22714;DHT22;11524;50.846;4.326;2022-10-24T05:09:17;23.20;57.30
22714;DHT22;11524;50.846;4.326;2022-10-24T05:11:43;23.10;57.40
22714;DHT22;11524;50.846;4.326;2022-10-24T05:14:09;23.20;57.40
22714;DHT22;11524;50.846;4.326;2022-10-24T05:16:34;23.10;57.20
22714;DHT22;11524;50.846;4.326;2022-10-24T05:19:00;23.20;57.20
22714;DHT22;11524;50.846;4.326;2022-10-24T05:21:25;23.10;57.30
22714;DHT22;11524;50.846;4.326;2022-10-24T05:23:52;23.20;57.40
22714;DHT22;11524;50.846;4.326;2022-10-24T05:26:18;23.20;57.10
22714;DHT22;11524;50.846;4.326;2022-10-24T05:28:43;23.10;57.60
22714;DHT22;11524;50.846;4.326;2022-10-24T05:31:09;23.10;57.10
22714;DHT22;11524;50.846;4.326;2022-10-24T05:33:34;23.10;57.40
22714;DHT22;11524;50.846;4.326;2022-10-24T05:36:00;23.20;63.00
22714;DHT22;11524;50.846;4.326;2022-10-24T05:38:25;23.20;63.70
22714;DHT22;11524;50.846;4.326;2022-10-24T05:40:51;23.20;64.20
22714;DHT22;11524;50.846;4.326;2022-10-24T05:43:18;23.30;64.20
22714;DHT22;11524;50.846;4.326;2022-10-24T05:45:44;23.30;59.00
22714;DHT22;11524;50.846;4.326;2022-10-24T05:48:11;23.20;57.30
22714;DHT22;11524;50.846;4.326;2022-10-24T05:50:37;23.20;56.70
22714;DHT22;11524;50.846;4.326;2022-10-24T05:53:03;23.20;56.70
22714;DHT22;11524;50.846;4.326;2022-10-24T05:55:28;23.20;56.40
22714;DHT22;11524;50.846;4.326;2022-10-24T05:57:55;23.10;55.90
22714;DHT22;11524;50.846;4.326;2022-10-24T06:00:21;23.20;56.00
22714;DHT22;11524;50.846;4.326;2022-10-24T06:02:47;23.20;56.30
22714;DHT22;11524;50.846;4.326;2022-10-24T06:05:13;23.10;56.00
22714;DHT22;11524;50.846;4.326;2022-10-24T06:07:39;23.10;56.20
22714;DHT22;11524;50.846;4.326;2022-10-24T06:10:09;23.10;56.20
22714;DHT22;11524;50.846;4.326;2022-10-24T06:12:35;23.10;56.10
22714;DHT22;11524;50.846;4.326;2022-10-24T06:15:02;22.90;54.70
22714;DHT22;11524;50.846;4.326;2022-10-24T06:17:29;21.70;57.10
22714;DHT22;11524;50.846;4.326;2022-10-24T06:19:54;21.10;59.60
22714;DHT22;11524;50.846;4.326;2022-10-24T06:22:20;20.70;62.30
22714;DHT22;11524;50.846;4.326;2022-10-24T06:24:49;20.50;63.20
22714;DHT22;11524;50.846;4.326;2022-10-24T06:27:15;20.60;65.10
22714;DHT22;11524;50.846;4.326;2022-10-24T06:29:41;20.90;65.30
22714;DHT22;11524;50.846;4.326;2022-10-24T06:32:07;21.20;64.30
22714;DHT22;11524;50.846;4.326;2022-10-24T06:34:32;21.50;64.20
22714;DHT22;11524;50.846;4.326;2022-10-24T06:36:58;21.80;62.50
22714;DHT22;11524;50.846;4.326;2022-10-24T06:39:24;22.10;61.60
22714;DHT22;11524;50.846;4.326;2022-10-24T06:41:49;22.30;59.50
22714;DHT22;11524;50.846;4.326;2022-10-24T06:44:15;22.40;58.70
22714;DHT22;11524;50.846;4.326;2022-10-24T06:46:40;22.50;58.70
22714;DHT22;11524;50.846;4.326;2022-10-24T06:49:06;22.60;58.40
22714;DHT22;11524;50.846;4.326;2022-10-24T06:51:32;22.60;58.20
22714;DHT22;11524;50.846;4.326;2022-10-24T06:53:58;22.70;58.10
22714;DHT22;11524;50.846;4.326;2022-10-24T06:56:24;22.80;57.90
22714;DHT22;11524;50.846;4.326;2022-10-24T06:58:49;22.80;57.60
22714;DHT22;11524;50.846;4.326;2022-10-24T07:01:18;22.90;57.50
22714;DHT22;11524;50.846;4.326;2022-10-24T07:03:44;22.90;57.60
22714;DHT22;11524;50.846;4.326;2022-10-24T07:06:19;23.00;57.80
22714;DHT22;11524;50.846;4.326;2022-10-24T07:08:45;23.00;57.50
22714;DHT22;11524;50.846;4.326;2022-10-24T07:11:10;23.10;57.20
22714;DHT22;11524;50.846;4.326;2022-10-24T07:13:36;23.10;57.10
22714;DHT22;11524;50.846;4.326;2022-10-24T07:16:02;23.10;56.90
22714;DHT22;11524;50.846;4.326;2022-10-24T07:18:28;23.10;56.90
22714;DHT22;11524;50.846;4.326;2022-10-24T07:20:53;23.20;56.80
22714;DHT22;11524;50.846;4.326;2022-10-24T07:23:19;23.20;56.40
22714;DHT22;11524;50.846;4.326;2022-10-24T07:25:44;23.30;56.40
22714;DHT22;11524;50.846;4.326;2022-10-24T07:28:11;23.30;56.50
22714;DHT22;11524;50.846;4.326;2022-10-24T07:30:38;23.30;56.10
22714;DHT22;11524;50.846;4.326;2022-10-24T07:33:04;23.30;56.20
22714;DHT22;11524;50.846;4.326;2022-10-24T07:35:30;23.30;56.00
22714;DHT22;11524;50.846;4.326;2022-10-24T07:37:55;23.40;55.80
22714;DHT22;11524;50.846;4.326;2022-10-24T07:40:22;23.40;55.70
22714;DHT22;11524;50.846;4.326;2022-10-24T07:42:47;23.50;55.80
22714;DHT22;11524;50.846;4.326;2022-10-24T07:45:13;23.50;55.50
22714;DHT22;11524;50.846;4.326;2022-10-24T07:47:39;23.50;55.50
22714;DHT22;11524;50.846;4.326;2022-10-24T07:50:05;23.60;55.70
22714;DHT22;11524;50.846;4.326;2022-10-24T07:52:31;23.60;55.60
22714;DHT22;11524;50.846;4.326;2022-10-24T07:54:57;23.60;55.50
22714;DHT22;11524;50.846;4.326;2022-10-24T07:57:23;23.60;55.50
22714;DHT22;11524;50.846;4.326;2022-10-24T07:59:49;23.70;55.40
22714;DHT22;11524;50.846;4.326;2022-10-24T08:02:15;23.60;55.40
22714;DHT22;11524;50.846;4.326;2022-10-24T08:04:42;23.70;55.40
22714;DHT22;11524;50.846;4.326;2022-10-24T08:07:09;23.60;55.30
22714;DHT22;11524;50.846;4.326;2022-10-24T08:09:46;23.60;55.10
22714;DHT22;11524;50.846;4.326;2022-10-24T08:12:11;23.60;55.20
22714;DHT22;11524;50.846;4.326;2022-10-24T08:14:39;23.70;55.10
22714;DHT22;11524;50.846;4.326;2022-10-24T08:17:04;23.70;55.20
22714;DHT22;11524;50.846;4.326;2022-10-24T08:19:31;23.70;55.20
22714;DHT22;11524;50.846;4.326;2022-10-24T08:21:57;23.70;55.20
22714;DHT22;11524;50.846;4.326;2022-10-24T08:24:23;23.70;55.00
22714;DHT22;11524;50.846;4.326;2022-10-24T08:26:48;23.80;55.10
22714;DHT22;11524;50.846;4.326;2022-10-24T08:29:14;23.80;55.10
22714;DHT22;11524;50.846;4.326;2022-10-24T08:31:52;23.80;54.70
22714;DHT22;11524;50.846;4.326;2022-10-24T08:34:18;23.80;55.30
22714;DHT22;11524;50.846;4.326;2022-10-24T08:36:45;23.80;55.40
22714;DHT22;11524;50.846;4.326;2022-10-24T08:39:11;23.80;55.60
22714;DHT22;11524;50.846;4.326;2022-10-24T08:41:38;23.80;55.70
22714;DHT22;11524;50.846;4.326;2022-10-24T08:44:32;23.80;56.60
22714;DHT22;11524;50.846;4.326;2022-10-24T08:47:03;23.80;55.70
22714;DHT22;11524;50.846;4.326;2022-10-24T08:49:44;23.90;56.60
22714;DHT22;11524;50.846;4.326;2022-10-24T08:57:37;24.00;59.30
22714;DHT22;11524;50.846;4.326;2022-10-24T09:00:38;24.00;59.50
22714;DHT22;11524;50.846;4.326;2022-10-24T09:05:55;24.00;59.30
22714;DHT22;11524;50.846;4.326;2022-10-24T09:10:57;24.00;60.00
22714;DHT22;11524;50.846;4.326;2022-10-24T09:13:26;24.00;59.30
22714;DHT22;11524;50.846;4.326;2022-10-24T09:15:52;24.00;59.20
22714;DHT22;11524;50.846;4.326;2022-10-24T09:20:47;24.00;58.90
22714;DHT22;11524;50.846;4.326;2022-10-24T09:23:15;24.10;59.00
22714;DHT22;11524;50.846;4.326;2022-10-24T09:25:50;24.10;58.80
22714;DHT22;11524;50.846;4.326;2022-10-24T09:28:16;24.10;58.80
22714;DHT22;11524;50.846;4.326;2022-10-24T09:30:44;24.10;58.60
22714;DHT22;11524;50.846;4.326;2022-10-24T09:36:00;24.20;58.50
22714;DHT22;11524;50.846;4.326;2022-10-24T09:38:34;24.20;58.20
22714;DHT22;11524;50.846;4.326;2022-10-24T09:43:38;24.30;58.00
22714;DHT22;11524;50.846;4.326;2022-10-24T09:51:17;24.30;57.30
22714;DHT22;11524;50.846;4.326;2022-10-24T09:54:05;24.30;57.40
22714;DHT22;11524;50.846;4.326;2022-10-24T09:56:40;24.30;57.30
22714;DHT22;11524;50.846;4.326;2022-10-24T10:02:31;24.30;57.20
22714;DHT22;11524;50.846;4.326;2022-10-24T10:07:39;24.30;56.80
22714;DHT22;11524;50.846;4.326;2022-10-24T10:10:31;24.30;56.70
22714;DHT22;11524;50.846;4.326;2022-10-24T10:18:31;24.40;56.50
22714;DHT22;11524;50.846;4.326;2022-10-24T10:21:08;24.40;56.50
22714;DHT22;11524;50.846;4.326;2022-10-24T10:23:40;24.30;56.50
22714;DHT22;11524;50.846;4.326;2022-10-24T10:26:17;24.30;56.50
22714;DHT22;11524;50.846;4.326;2022-10-24T10:31:11;24.40;56.60
22714;DHT22;11524;50.846;4.326;2022-10-24T10:33:56;24.30;56.50
22714;DHT22;11524;50.846;4.326;2022-10-24T10:36:34;24.40;56.60
22714;DHT22;11524;50.846;4.326;2022-10-24T10:52:49;24.60;55.90
22714;DHT22;11524;50.846;4.326;2022-10-24T10:57:54;24.60;55.90
22714;DHT22;11524;50.846;4.326;2022-10-24T11:06:02;24.50;55.90
22714;DHT22;11524;50.846;4.326;2022-10-24T11:11:23;24.50;55.90
22714;DHT22;11524;50.846;4.326;2022-10-24T11:16:26;24.50;55.70
22714;DHT22;11524;50.846;4.326;2022-10-24T11:19:07;24.50;55.70
22714;DHT22;11524;50.846;4.326;2022-10-24T11:21:35;24.50;55.70
22714;DHT22;11524;50.846;4.326;2022-10-24T11:24:09;24.50;55.60
22714;DHT22;11524;50.846;4.326;2022-10-24T11:29:35;24.60;55.40
22714;DHT22;11524;50.846;4.326;2022-10-24T11:32:34;24.60;55.40
22714;DHT22;11524;50.846;4.326;2022-10-24T11:37:51;24.60;54.90
22714;DHT22;11524;50.846;4.326;2022-10-24T11:40:21;24.50;54.40
22714;DHT22;11524;50.846;4.326;2022-10-24T11:45:31;24.40;54.30
22714;DHT22;11524;50.846;4.326;2022-10-24T11:48:00;24.30;54.40
22714;DHT22;11524;50.846;4.326;2022-10-24T11:50:37;24.30;54.30
22714;DHT22;11524;50.846;4.326;2022-10-24T11:56:34;24.30;54.30
22714;DHT22;11524;50.846;4.326;2022-10-24T11:59:12;24.20;54.20
22714;DHT22;11524;50.846;4.326;2022-10-24T12:10:23;24.20;54.40
22714;DHT22;11524;50.846;4.326;2022-10-24T12:18:23;24.10;54.50
22714;DHT22;11524;50.846;4.326;2022-10-24T12:20:53;24.10;54.40
22714;DHT22;11524;50.846;4.326;2022-10-24T12:23:25;24.20;54.50
22714;DHT22;11524;50.846;4.326;2022-10-24T12:26:28;24.10;54.50
22714;DHT22;11524;50.846;4.326;2022-10-24T12:29:02;24.10;54.40
22714;DHT22;11524;50.846;4.326;2022-10-24T12:31:33;24.10;54.50
22714;DHT22;11524;50.846;4.326;2022-10-24T12:39:33;24.10;54.50
22714;DHT22;11524;50.846;4.326;2022-10-24T12:41:59;24.10;54.60
22714;DHT22;11524;50.846;4.326;2022-10-24T12:46:56;24.00;55.50
22714;DHT22;11524;50.846;4.326;2022-10-24T12:49:30;23.90;55.70
22714;DHT22;11524;50.846;4.326;2022-10-24T12:51:57;24.00;55.80
22714;DHT22;11524;50.846;4.326;2022-10-24T12:54:43;24.00;55.80
22714;DHT22;11524;50.846;4.326;2022-10-24T13:02:24;24.00;56.00
22714;DHT22;11524;50.846;4.326;2022-10-24T13:08:00;24.00;56.10
22714;DHT22;11524;50.846;4.326;2022-10-24T13:10:42;24.00;56.00
22714;DHT22;11524;50.846;4.326;2022-10-24T13:16:01;24.00;55.70
22714;DHT22;11524;50.846;4.326;2022-10-24T13:19:07;24.00;55.70
22714;DHT22;11524;50.846;4.326;2022-10-24T13:21:57;24.00;55.60
22714;DHT22;11524;50.846;4.326;2022-10-24T13:24:27;24.00;55.50
22714;DHT22;11524;50.846;4.326;2022-10-24T13:31:48;24.00;55.70
22714;DHT22;11524;50.846;4.326;2022-10-24T13:39:52;24.00;55.60
22714;DHT22;11524;50.846;4.326;2022-10-24T13:42:55;24.00;55.50
22714;DHT22;11524;50.846;4.326;2022-10-24T13:45:24;24.00;55.60
22714;DHT22;11524;50.846;4.326;2022-10-24T13:48:09;24.00;56.20
22714;DHT22;11524;50.846;4.326;2022-10-24T13:50:40;24.00;55.40
22714;DHT22;11524;50.846;4.326;2022-10-24T13:53:18;24.00;55.30
22714;DHT22;11524;50.846;4.326;2022-10-24T13:55:47;24.00;55.40
22714;DHT22;11524;50.846;4.326;2022-10-24T13:58:20;24.00;55.20
22714;DHT22;11524;50.846;4.326;2022-10-24T14:00:59;24.00;55.20
22714;DHT22;11524;50.846;4.326;2022-10-24T14:03:28;24.00;55.00
22714;DHT22;11524;50.846;4.326;2022-10-24T14:05:57;24.00;55.10
22714;DHT22;11524;50.846;4.326;2022-10-24T14:10:53;24.00;55.10
22714;DHT22;11524;50.846;4.326;2022-10-24T14:13:20;24.00;55.00
22714;DHT22;11524;50.846;4.326;2022-10-24T14:16:02;24.00;55.20
22714;DHT22;11524;50.846;4.326;2022-10-24T14:18:29;24.00;55.20
22714;DHT22;11524;50.846;4.326;2022-10-24T14:20:59;24.00;55.00
22714;DHT22;11524;50.846;4.326;2022-10-24T14:23:31;24.00;55.10
22714;DHT22;11524;50.846;4.326;2022-10-24T14:26:05;24.00;55.40
22714;DHT22;11524;50.846;4.326;2022-10-24T14:28:35;24.00;56.00
22714;DHT22;11524;50.846;4.326;2022-10-24T14:31:04;24.00;57.00
22714;DHT22;11524;50.846;4.326;2022-10-24T14:33:32;24.10;57.30
22714;DHT22;11524;50.846;4.326;2022-10-24T14:36:05;24.10;57.40
22714;DHT22;11524;50.846;4.326;2022-10-24T14:38:33;24.10;57.30
22714;DHT22;11524;50.846;4.326;2022-10-24T14:40:59;24.10;56.60
22714;DHT22;11524;50.846;4.326;2022-10-24T14:43:27;24.10;55.70
22714;DHT22;11524;50.846;4.326;2022-10-24T14:48:42;24.00;55.00
22714;DHT22;11524;50.846;4.326;2022-10-24T14:51:32;24.00;54.50
22714;DHT22;11524;50.846;4.326;2022-10-24T14:54:02;24.00;54.70
22714;DHT22;11524;50.846;4.326;2022-10-24T14:56:34;24.00;54.60
22714;DHT22;11524;50.846;4.326;2022-10-24T14:59:03;24.00;54.80
22714;DHT22;11524;50.846;4.326;2022-10-24T15:01:30;24.00;54.90
22714;DHT22;11524;50.846;4.326;2022-10-24T15:04:00;24.00;54.80
22714;DHT22;11524;50.846;4.326;2022-10-24T15:06:42;24.00;55.00
22714;DHT22;11524;50.846;4.326;2022-10-24T15:14:03;24.00;54.90
22714;DHT22;11524;50.846;4.326;2022-10-24T15:16:37;23.90;54.90
22714;DHT22;11524;50.846;4.326;2022-10-24T15:19:04;23.90;54.90
22714;DHT22;11524;50.846;4.326;2022-10-24T15:21:42;24.00;55.00
22714;DHT22;11524;50.846;4.326;2022-10-24T15:24:22;23.90;54.90
22714;DHT22;11524;50.846;4.326;2022-10-24T15:26:48;23.90;54.90
22714;DHT22;11524;50.846;4.326;2022-10-24T15:29:21;23.90;54.90
22714;DHT22;11524;50.846;4.326;2022-10-24T15:31:49;23.90;54.90
22714;DHT22;11524;50.846;4.326;2022-10-24T15:34:19;23.90;54.80
22714;DHT22;11524;50.846;4.326;2022-10-24T15:36:47;23.90;54.90
22714;DHT22;11524;50.846;4.326;2022-10-24T15:39:16;23.90;55.00
22714;DHT22;11524;50.846;4.326;2022-10-24T15:41:42;23.90;54.90
22714;DHT22;11524;50.846;4.326;2022-10-24T15:44:22;23.90;54.90
22714;DHT22;11524;50.846;4.326;2022-10-24T15:46:49;23.90;55.00
22714;DHT22;11524;50.846;4.326;2022-10-24T15:49:15;23.90;54.90
22714;DHT22;11524;50.846;4.326;2022-10-24T15:51:43;23.90;55.00
22714;DHT22;11524;50.846;4.326;2022-10-24T15:54:14;23.90;54.90
22714;DHT22;11524;50.846;4.326;2022-10-24T15:56:39;23.90;55.00
22714;DHT22;11524;50.846;4.326;2022-10-24T15:59:05;23.80;54.90
22714;DHT22;11524;50.846;4.326;2022-10-24T16:01:38;23.90;55.10
22714;DHT22;11524;50.846;4.326;2022-10-24T16:04:07;23.90;55.10
22714;DHT22;11524;50.846;4.326;2022-10-24T16:06:33;23.80;54.90
22714;DHT22;11524;50.846;4.326;2022-10-24T16:08:59;23.80;55.10
22714;DHT22;11524;50.846;4.326;2022-10-24T16:11:25;23.80;55.00
22714;DHT22;11524;50.846;4.326;2022-10-24T16:13:51;23.80;55.10
22714;DHT22;11524;50.846;4.326;2022-10-24T16:16:17;23.80;55.10
22714;DHT22;11524;50.846;4.326;2022-10-24T16:18:45;23.80;55.10
22714;DHT22;11524;50.846;4.326;2022-10-24T16:21:18;23.80;55.10
22714;DHT22;11524;50.846;4.326;2022-10-24T16:23:44;23.80;55.20
22714;DHT22;11524;50.846;4.326;2022-10-24T16:26:11;23.80;55.60
22714;DHT22;11524;50.846;4.326;2022-10-24T16:28:36;23.70;55.10
22714;DHT22;11524;50.846;4.326;2022-10-24T16:31:03;23.70;55.30
22714;DHT22;11524;50.846;4.326;2022-10-24T16:33:29;23.70;55.30
22714;DHT22;11524;50.846;4.326;2022-10-24T16:35:55;23.70;55.30
22714;DHT22;11524;50.846;4.326;2022-10-24T16:38:21;23.70;55.20
22714;DHT22;11524;50.846;4.326;2022-10-24T16:40:46;23.70;55.30
22714;DHT22;11524;50.846;4.326;2022-10-24T16:43:16;23.70;55.40
22714;DHT22;11524;50.846;4.326;2022-10-24T16:45:42;23.60;55.30
22714;DHT22;11524;50.846;4.326;2022-10-24T16:48:08;23.60;55.30
22714;DHT22;11524;50.846;4.326;2022-10-24T16:50:34;23.70;55.40
22714;DHT22;11524;50.846;4.326;2022-10-24T16:53:02;23.70;55.40
22714;DHT22;11524;50.846;4.326;2022-10-24T16:55:29;23.60;55.30
22714;DHT22;11524;50.846;4.326;2022-10-24T16:57:55;23.60;55.30
22714;DHT22;11524;50.846;4.326;2022-10-24T17:00:22;23.60;56.00
22714;DHT22;11524;50.846;4.326;2022-10-24T17:02:49;23.60;55.30
22714;DHT22;11524;50.846;4.326;2022-10-24T17:05:18;23.60;55.30
22714;DHT22;11524;50.846;4.326;2022-10-24T17:07:44;23.60;55.20
22714;DHT22;11524;50.846;4.326;2022-10-24T17:10:10;23.70;55.40
22714;DHT22;11524;50.846;4.326;2022-10-24T17:12:44;23.50;55.30
22714;DHT22;11524;50.846;4.326;2022-10-24T17:15:12;23.60;55.40
22714;DHT22;11524;50.846;4.326;2022-10-24T17:17:38;23.50;55.30
22714;DHT22;11524;50.846;4.326;2022-10-24T17:20:05;23.50;55.30
22714;DHT22;11524;50.846;4.326;2022-10-24T17:22:31;23.50;55.40
22714;DHT22;11524;50.846;4.326;2022-10-24T17:24:57;23.50;55.50
22714;DHT22;11524;50.846;4.326;2022-10-24T17:27:23;23.50;55.30
22714;DHT22;11524;50.846;4.326;2022-10-24T17:29:49;23.50;55.50
22714;DHT22;11524;50.846;4.326;2022-10-24T17:32:16;23.50;55.40
22714;DHT22;11524;50.846;4.326;2022-10-24T17:34:43;23.50;55.50
22714;DHT22;11524;50.846;4.326;2022-10-24T17:42:38;23.50;56.00
22714;DHT22;11524;50.846;4.326;2022-10-24T17:45:08;23.50;56.50
22714;DHT22;11524;50.846;4.326;2022-10-24T17:47:34;23.50;57.00
22714;DHT22;11524;50.846;4.326;2022-10-24T17:49:59;23.40;57.40
22714;DHT22;11524;50.846;4.326;2022-10-24T17:52:25;23.40;57.60
22714;DHT22;11524;50.846;4.326;2022-10-24T17:54:51;23.40;57.80
22714;DHT22;11524;50.846;4.326;2022-10-24T17:57:16;23.40;57.90
22714;DHT22;11524;50.846;4.326;2022-10-24T17:59:42;23.40;57.90
22714;DHT22;11524;50.846;4.326;2022-10-24T18:02:12;23.40;58.00
22714;DHT22;11524;50.846;4.326;2022-10-24T18:04:38;23.40;57.90
22714;DHT22;11524;50.846;4.326;2022-10-24T18:07:06;23.40;57.70
22714;DHT22;11524;50.846;4.326;2022-10-24T18:09:31;23.40;57.80
22714;DHT22;11524;50.846;4.326;2022-10-24T18:12:01;23.40;57.80
22714;DHT22;11524;50.846;4.326;2022-10-24T18:14:27;23.30;57.80
22714;DHT22;11524;50.846;4.326;2022-10-24T18:16:53;23.40;58.00